createdAt,value
2022-09-03T00:00:49.306Z,48.09
2022-09-03T00:01:49.414Z,48.53
2022-09-03T00:02:49.331Z,57.12
2022-09-03T00:03:49.281Z,53.18
2022-09-03T00:04:49.280Z,55.82
2022-09-03T00:05:49.272Z,53.03
2022-09-03T00:06:49.279Z,52.43
2022-09-03T00:07:49.265Z,52.21
2022-09-03T00:08:49.245Z,51.51
2022-09-03T00:09:49.243Z,52.73
2022-09-03T00:10:49.229Z,50.86
2022-09-03T00:11:49.229Z,54.46
2022-09-03T00:12:49.221Z,51.28
2022-09-03T00:13:49.210Z,41.50
2022-09-03T00:14:49.201Z,50.28
2022-09-03T00:15:49.265Z,53.69
2022-09-03T00:16:49.185Z,53.67
2022-09-03T00:17:49.178Z,46.41
2022-09-03T00:18:49.170Z,52.50
2022-09-03T00:19:49.164Z,46.45
2022-09-03T00:20:49.157Z,51.43
2022-09-03T00:21:49.143Z,53.48
2022-09-03T00:22:49.145Z,46.05
2022-09-03T00:23:49.125Z,53.07
2022-09-03T00:24:49.146Z,49.48
2022-09-03T00:25:49.118Z,51.51
2022-09-03T00:26:49.101Z,51.91
2022-09-03T00:27:49.099Z,55.43
2022-09-03T00:28:49.087Z,53.22
2022-09-03T00:29:49.101Z,56.26
2022-09-03T00:32:48.430Z,49.57
2022-09-03T00:33:48.421Z,56.58
2022-09-03T00:34:49.502Z,57.56
2022-09-03T00:35:49.505Z,55.11
2022-09-03T00:36:49.497Z,48.57
2022-09-03T00:37:49.485Z,54.27
2022-09-03T00:38:49.470Z,48.94
2022-09-03T00:39:49.544Z,57.46
2022-09-03T00:40:49.456Z,54.92
2022-09-03T00:41:50.090Z,48.57
2022-09-03T00:42:49.446Z,52.10
2022-09-03T00:43:49.442Z,52.92
2022-09-03T00:44:49.429Z,47.23
2022-09-03T00:45:49.417Z,50.24
2022-09-03T00:46:49.458Z,51.07
2022-09-03T00:47:49.404Z,54.04
2022-09-03T00:48:49.396Z,49.07
2022-09-03T00:49:49.383Z,48.23
2022-09-03T00:50:49.377Z,46.85
2022-09-03T00:51:49.390Z,47.10
2022-09-03T00:52:49.366Z,53.36
2022-09-03T00:53:49.353Z,52.08
2022-09-03T00:54:49.346Z,46.87
2022-09-03T00:55:49.338Z,54.10
2022-09-03T00:56:49.338Z,50.77
2022-09-03T00:57:49.332Z,53.98
2022-09-03T00:58:49.314Z,55.87
2022-09-03T00:59:49.310Z,52.16
2022-09-03T01:00:49.297Z,58.61
2022-09-03T01:01:49.379Z,49.15
2022-09-03T01:02:49.452Z,46.94
2022-09-03T01:03:49.272Z,47.21
2022-09-03T01:04:49.273Z,52.12
2022-09-03T01:05:49.256Z,50.89
2022-09-03T01:06:49.260Z,51.60
2022-09-03T01:07:49.241Z,57.39
2022-09-03T01:08:49.477Z,50.35
2022-09-03T01:09:49.228Z,52.97
2022-09-03T01:10:49.222Z,55.13
2022-09-03T01:11:49.222Z,58.61
2022-09-03T01:12:49.234Z,50.21
2022-09-03T01:13:49.204Z,53.02
2022-09-03T01:14:50.177Z,51.78
2022-09-03T01:15:49.238Z,55.35
2022-09-03T01:16:49.177Z,51.96
2022-09-03T01:17:49.191Z,51.35
2022-09-03T01:18:49.169Z,55.00
2022-09-03T01:19:49.152Z,57.77
2022-09-03T01:20:49.149Z,51.42
2022-09-03T01:21:49.147Z,54.60
2022-09-03T01:22:49.134Z,53.29
2022-09-03T01:23:49.122Z,53.32
2022-09-03T01:24:49.120Z,51.66
2022-09-03T01:25:49.141Z,53.52
2022-09-03T01:26:49.130Z,55.29
2022-09-03T01:27:49.098Z,54.49
2022-09-03T01:28:49.092Z,59.19
2022-09-03T01:29:49.070Z,50.11
2022-09-03T01:30:49.165Z,53.10
2022-09-03T01:31:49.061Z,47.86
2022-09-03T01:32:49.053Z,50.54
2022-09-03T01:33:49.046Z,58.52
2022-09-03T01:34:49.050Z,55.41
2022-09-03T01:35:49.068Z,52.92
2022-09-03T01:36:49.021Z,55.42
2022-09-03T01:37:49.018Z,49.75
2022-09-03T01:38:49.008Z,53.44
2022-09-03T01:39:49.061Z,51.03
2022-09-03T01:40:49.000Z,50.79
2022-09-03T01:41:48.977Z,49.23
2022-09-03T01:42:48.981Z,50.60
2022-09-03T01:43:48.965Z,54.70
2022-09-03T01:44:49.901Z,54.99
2022-09-03T01:45:51.530Z,54.59
2022-09-03T01:46:49.016Z,53.13
2022-09-03T01:47:48.952Z,48.80
2022-09-03T01:48:48.926Z,56.40
2022-09-03T01:49:48.914Z,48.03
2022-09-03T01:50:48.928Z,51.97
2022-09-03T01:51:48.899Z,53.81
2022-09-03T01:52:48.900Z,54.58
2022-09-03T01:53:48.892Z,55.95
2022-09-03T01:54:48.883Z,55.56
2022-09-03T01:55:48.871Z,49.30
2022-09-03T01:56:48.863Z,49.85
2022-09-03T01:57:48.868Z,49.06
2022-09-03T01:58:48.850Z,55.42
2022-09-03T01:59:48.838Z,53.27
2022-09-03T02:00:48.837Z,55.61
2022-09-03T02:01:48.882Z,54.23
2022-09-03T02:02:48.872Z,52.27
2022-09-03T02:03:48.804Z,47.39
2022-09-03T02:04:48.800Z,45.96
2022-09-03T02:05:48.788Z,48.97
2022-09-03T02:06:48.786Z,53.52
2022-09-03T02:07:48.786Z,52.56
2022-09-03T02:08:48.771Z,51.14
2022-09-03T02:09:48.762Z,56.52
2022-09-03T02:10:48.753Z,52.93
2022-09-03T02:11:48.753Z,54.66
2022-09-03T02:12:48.737Z,58.22
2022-09-03T02:13:48.783Z,53.82
2022-09-03T02:14:48.733Z,52.99
2022-09-03T02:15:48.784Z,52.38
2022-09-03T02:16:48.699Z,52.01
2022-09-03T02:17:48.698Z,59.40
2022-09-03T02:18:48.699Z,54.40
2022-09-03T02:19:48.690Z,52.14
2022-09-03T02:20:48.681Z,55.71
2022-09-03T02:21:48.660Z,52.78
2022-09-03T02:22:48.655Z,50.58
2022-09-03T02:23:48.653Z,54.20
2022-09-03T02:24:48.643Z,58.83
2022-09-03T02:25:48.628Z,55.34
2022-09-03T02:26:48.625Z,48.47
2022-09-03T02:27:48.613Z,53.82
2022-09-03T02:28:49.196Z,56.39
2022-09-03T02:29:48.598Z,55.60
2022-09-03T02:30:48.646Z,55.16
2022-09-03T02:31:48.579Z,55.67
2022-09-03T02:32:48.615Z,58.07
2022-09-03T02:33:48.579Z,55.64
2022-09-03T02:34:48.561Z,59.49
2022-09-03T02:35:48.555Z,52.45
2022-09-03T02:36:48.547Z,50.21
2022-09-03T02:37:48.553Z,58.26
2022-09-03T02:38:48.524Z,58.12
2022-09-03T02:39:48.534Z,55.03
2022-09-03T02:40:48.509Z,53.53
2022-09-03T02:41:48.518Z,55.26
2022-09-03T02:42:48.495Z,59.58
2022-09-03T02:43:48.501Z,57.96
2022-09-03T02:44:48.481Z,56.40
2022-09-03T02:45:48.520Z,51.99
2022-09-03T02:46:48.493Z,49.11
2022-09-03T02:47:48.462Z,56.49
2022-09-03T02:48:48.457Z,53.85
2022-09-03T02:49:48.447Z,53.50
2022-09-03T02:50:48.452Z,51.40
2022-09-03T02:51:48.444Z,55.07
2022-09-03T02:52:48.432Z,47.67
2022-09-03T02:53:48.414Z,57.53
2022-09-03T02:54:48.408Z,56.85
2022-09-03T02:55:48.396Z,57.88
2022-09-03T02:56:48.396Z,56.85
2022-09-03T02:57:48.375Z,54.03
2022-09-03T02:58:49.121Z,57.82
2022-09-03T02:59:48.371Z,52.25
2022-09-03T03:00:48.360Z,53.76
2022-09-03T03:01:48.383Z,57.68
2022-09-03T03:02:48.396Z,55.82
2022-09-03T03:03:48.325Z,55.65
2022-09-03T03:04:48.322Z,57.39
2022-09-03T03:05:48.318Z,55.94
2022-09-03T03:06:48.300Z,57.55
2022-09-03T03:07:48.305Z,60.05
2022-09-03T03:08:48.289Z,60.93
2022-09-03T03:09:48.287Z,58.77
2022-09-03T03:10:48.271Z,58.58
2022-09-03T03:11:48.268Z,56.84
2022-09-03T03:12:48.263Z,61.99
2022-09-03T03:13:48.260Z,57.65
2022-09-03T03:14:48.242Z,60.63
2022-09-03T03:15:48.232Z,57.18
2022-09-03T03:16:48.423Z,59.20
2022-09-03T03:17:48.224Z,57.05
2022-09-03T03:18:48.224Z,57.89
2022-09-03T03:19:48.200Z,59.34
2022-09-03T03:20:48.194Z,53.08
2022-09-03T03:21:48.195Z,55.24
2022-09-03T03:22:48.187Z,54.95
2022-09-03T03:23:48.169Z,56.87
2022-09-03T03:24:48.167Z,57.76
2022-09-03T03:25:48.155Z,57.91
2022-09-03T03:26:48.165Z,57.30
2022-09-03T03:27:48.152Z,59.12
2022-09-03T03:28:48.127Z,56.22
2022-09-03T03:29:48.119Z,59.66
2022-09-03T03:30:48.168Z,60.12
2022-09-03T03:31:48.105Z,56.85
2022-09-03T03:32:48.095Z,62.11
2022-09-03T03:33:48.096Z,56.36
2022-09-03T03:34:48.101Z,56.10
2022-09-03T03:35:48.069Z,61.39
2022-09-03T03:36:48.060Z,61.40
2022-09-03T03:37:48.076Z,56.47
2022-09-03T03:38:48.049Z,57.56
2022-09-03T03:39:48.081Z,60.59
2022-09-03T03:40:48.028Z,59.14
2022-09-03T03:41:48.019Z,62.88
2022-09-03T03:42:48.011Z,61.16
2022-09-03T03:43:48.010Z,59.86
2022-09-03T03:44:48.002Z,58.15
2022-09-03T03:45:48.047Z,56.22
2022-09-03T03:46:47.982Z,55.80
2022-09-03T03:47:47.972Z,60.86
2022-09-03T03:48:47.963Z,56.84
2022-09-03T03:49:47.956Z,56.19
2022-09-03T03:50:47.965Z,60.66
2022-09-03T03:51:47.938Z,57.69
2022-09-03T03:52:47.939Z,59.20
2022-09-03T03:53:47.949Z,57.25
2022-09-03T03:54:47.917Z,53.04
2022-09-03T03:55:47.950Z,59.54
2022-09-03T03:56:55.334Z,56.70
2022-09-03T03:57:48.889Z,55.18
2022-09-03T03:58:47.883Z,55.53
2022-09-03T03:59:47.891Z,53.27
2022-09-03T04:00:47.882Z,56.91
2022-09-03T04:01:47.857Z,57.14
2022-09-03T04:02:47.909Z,57.06
2022-09-03T04:03:47.841Z,56.24
2022-09-03T04:04:47.832Z,59.30
2022-09-03T04:05:48.661Z,57.46
2022-09-03T04:06:47.818Z,58.82
2022-09-03T04:07:47.815Z,57.29
2022-09-03T04:08:47.800Z,57.19
2022-09-03T04:09:47.793Z,59.45
2022-09-03T04:10:47.796Z,57.70
2022-09-03T04:11:47.787Z,57.43
2022-09-03T04:12:47.772Z,55.69
2022-09-03T04:13:47.761Z,59.45
2022-09-03T04:14:47.760Z,56.62
2022-09-03T04:15:47.747Z,58.79
2022-09-03T04:16:47.838Z,60.98
2022-09-03T04:17:47.731Z,60.04
2022-09-03T04:18:47.728Z,59.62
2022-09-03T04:19:47.718Z,61.79
2022-09-03T04:20:47.715Z,55.01
2022-09-03T04:21:47.704Z,52.79
2022-09-03T04:22:51.737Z,52.78
2022-09-03T04:23:48.687Z,57.52
2022-09-03T04:24:47.697Z,57.18
2022-09-03T04:25:47.667Z,56.73
2022-09-03T04:26:47.665Z,55.27
2022-09-03T04:27:47.663Z,56.34
2022-09-03T04:28:47.669Z,61.40
2022-09-03T04:29:47.645Z,59.69
2022-09-03T04:30:47.665Z,57.93
2022-09-03T04:31:47.622Z,60.64
2022-09-03T04:32:47.621Z,56.68
2022-09-03T04:33:47.609Z,60.96
2022-09-03T04:34:47.596Z,58.49
2022-09-03T04:35:47.596Z,59.74
2022-09-03T04:36:51.049Z,57.87
2022-09-03T04:37:49.585Z,57.67
2022-09-03T04:38:47.574Z,60.32
2022-09-03T04:39:47.626Z,65.34
2022-09-03T04:40:47.551Z,61.19
2022-09-03T04:41:47.544Z,59.46
2022-09-03T04:42:47.545Z,55.26
2022-09-03T04:43:48.274Z,61.15
2022-09-03T04:44:47.541Z,58.26
2022-09-03T04:45:47.547Z,58.49
2022-09-03T04:46:47.501Z,58.65
2022-09-03T04:47:47.501Z,58.95
2022-09-03T04:48:47.497Z,58.53
2022-09-03T04:49:47.483Z,62.23
2022-09-03T04:50:47.480Z,61.59
2022-09-03T04:51:47.472Z,60.03
2022-09-03T04:52:47.466Z,59.26
2022-09-03T04:53:47.450Z,60.00
2022-09-03T04:54:47.441Z,58.99
2022-09-03T04:55:47.445Z,58.95
2022-09-03T04:56:47.463Z,59.07
2022-09-03T04:57:47.424Z,59.91
2022-09-03T04:58:50.989Z,59.24
2022-09-03T04:59:47.427Z,57.91
2022-09-03T05:00:47.429Z,56.28
2022-09-03T05:01:47.445Z,58.20
2022-09-03T05:02:47.387Z,58.85
2022-09-03T05:03:47.385Z,61.42
2022-09-03T05:04:47.372Z,56.93
2022-09-03T05:05:52.415Z,55.69
2022-09-03T05:06:48.356Z,62.15
2022-09-03T05:07:47.343Z,61.88
2022-09-03T05:08:47.334Z,64.47
2022-09-03T05:09:47.332Z,60.72
2022-09-03T05:10:47.324Z,62.73
2022-09-03T05:11:47.315Z,57.36
2022-09-03T05:12:47.301Z,59.54
2022-09-03T05:13:47.301Z,58.32
2022-09-03T05:14:47.416Z,58.10
2022-09-03T05:15:47.283Z,53.61
2022-09-03T05:16:53.154Z,56.02
2022-09-03T05:17:48.269Z,53.24
2022-09-03T05:18:47.259Z,54.70
2022-09-03T05:19:47.250Z,60.30
2022-09-03T05:20:47.257Z,58.42
2022-09-03T05:21:47.235Z,56.77
2022-09-03T05:22:47.230Z,58.04
2022-09-03T05:23:47.214Z,61.28
2022-09-03T05:24:47.213Z,58.66
2022-09-03T05:25:47.207Z,60.80
2022-09-03T05:26:47.214Z,56.68
2022-09-03T05:27:47.191Z,60.31
2022-09-03T05:28:47.178Z,58.44
2022-09-03T05:29:47.193Z,53.96
2022-09-03T05:30:47.169Z,58.30
2022-09-03T05:31:47.182Z,57.99
2022-09-03T05:32:47.150Z,53.49
2022-09-03T05:33:47.140Z,58.92
2022-09-03T05:34:47.129Z,56.41
2022-09-03T05:35:47.125Z,56.27
2022-09-03T05:36:47.125Z,56.09
2022-09-03T05:37:47.103Z,59.09
2022-09-03T05:38:47.095Z,61.17
2022-09-03T05:39:47.138Z,52.98
2022-09-03T05:40:47.088Z,57.58
2022-09-03T05:41:47.094Z,58.43
2022-09-03T05:42:47.076Z,56.88
2022-09-03T05:43:47.077Z,58.50
2022-09-03T05:44:47.055Z,57.26
2022-09-03T05:45:47.057Z,55.16
2022-09-03T05:46:47.041Z,56.22
2022-09-03T05:47:47.030Z,55.83
2022-09-03T05:48:47.050Z,56.45
2022-09-03T05:49:47.028Z,59.69
2022-09-03T05:50:47.003Z,56.33
2022-09-03T05:51:46.995Z,57.38
2022-09-03T05:52:46.987Z,57.93
2022-09-03T05:53:47.026Z,58.26
2022-09-03T05:54:46.970Z,56.19
2022-09-03T05:55:46.969Z,61.24
2022-09-03T05:56:46.961Z,60.91
2022-09-03T05:57:46.946Z,65.72
2022-09-03T05:58:46.963Z,62.81
2022-09-03T05:59:46.925Z,59.91
2022-09-03T06:00:46.949Z,59.22
2022-09-03T06:01:50.750Z,56.28
2022-09-03T06:02:47.980Z,57.16
2022-09-03T06:03:46.956Z,54.79
2022-09-03T06:04:46.886Z,56.35
2022-09-03T06:05:46.881Z,54.02
2022-09-03T06:06:46.878Z,57.13
2022-09-03T06:07:46.859Z,56.50
2022-09-03T06:08:46.856Z,51.76
2022-09-03T06:09:46.851Z,55.90
2022-09-03T06:10:46.843Z,59.65
2022-09-03T06:11:46.841Z,54.55
2022-09-03T06:12:47.411Z,57.76
2022-09-03T06:13:46.811Z,57.68
2022-09-03T06:14:46.810Z,55.58
2022-09-03T06:15:46.800Z,55.24
2022-09-03T06:16:46.823Z,58.79
2022-09-03T06:17:46.783Z,54.93
2022-09-03T06:18:46.775Z,56.55
2022-09-03T06:19:46.780Z,59.96
2022-09-03T06:20:46.757Z,60.21
2022-09-03T06:21:47.778Z,60.79
2022-09-03T06:22:46.745Z,57.50
2022-09-03T06:23:46.856Z,53.45
2022-09-03T06:24:46.746Z,59.31
2022-09-03T06:25:46.720Z,59.83
2022-09-03T06:26:46.720Z,56.37
2022-09-03T06:27:46.704Z,59.46
2022-09-03T06:28:46.710Z,58.52
2022-09-03T06:29:46.684Z,57.58
2022-09-03T06:30:46.681Z,60.78
2022-09-03T06:31:46.754Z,60.67
2022-09-03T06:32:46.664Z,56.32
2022-09-03T06:33:46.663Z,56.88
2022-09-03T06:34:46.650Z,54.44
2022-09-03T06:35:46.639Z,55.84
2022-09-03T06:36:46.639Z,58.04
2022-09-03T06:37:46.627Z,58.03
2022-09-03T06:38:46.623Z,57.44
2022-09-03T06:39:47.263Z,56.52
2022-09-03T06:40:46.598Z,57.27
2022-09-03T06:41:46.601Z,56.49
2022-09-03T06:42:46.594Z,56.09
2022-09-03T06:43:46.583Z,56.30
2022-09-03T06:44:46.574Z,52.50
2022-09-03T06:45:46.607Z,51.79
2022-09-03T06:46:46.565Z,53.09
2022-09-03T06:47:46.548Z,59.07
2022-09-03T06:48:46.545Z,62.54
2022-09-03T06:49:46.533Z,59.46
2022-09-03T06:50:46.535Z,57.35
2022-09-03T06:51:46.531Z,57.67
2022-09-03T06:52:46.531Z,56.35
2022-09-03T06:53:46.501Z,55.06
2022-09-03T06:54:46.488Z,58.84
2022-09-03T06:55:46.474Z,56.98
2022-09-03T06:56:47.478Z,55.24
2022-09-03T06:57:46.473Z,54.58
2022-09-03T06:58:47.467Z,54.85
2022-09-03T06:59:46.480Z,56.38
2022-09-03T07:00:46.507Z,54.61
2022-09-03T07:01:46.917Z,55.57
2022-09-03T07:02:46.470Z,51.74
2022-09-03T07:03:46.427Z,57.46
2022-09-03T07:04:46.432Z,56.21
2022-09-03T07:05:46.404Z,56.74
2022-09-03T07:06:46.415Z,54.41
2022-09-03T07:07:46.398Z,55.87
2022-09-03T07:08:46.381Z,53.39
2022-09-03T07:09:48.380Z,53.58
2022-09-03T07:10:47.365Z,50.96
2022-09-03T07:11:46.356Z,37.35
2022-09-03T07:12:46.405Z,47.43
2022-09-03T07:13:46.339Z,33.36
2022-09-03T07:14:46.333Z,38.23
2022-09-03T07:15:46.422Z,44.49
2022-09-03T07:16:46.399Z,50.65
2022-09-03T07:17:46.414Z,54.92
2022-09-03T07:18:46.304Z,46.31
2022-09-03T07:19:46.290Z,46.44
2022-09-03T07:20:46.283Z,48.72
2022-09-03T07:21:50.458Z,39.71
2022-09-03T07:22:47.267Z,29.78
2022-09-03T07:23:46.258Z,38.44
2022-09-03T07:24:46.252Z,47.67
2022-09-03T07:25:46.256Z,39.71
2022-09-03T07:26:46.243Z,44.37
2022-09-03T07:27:46.340Z,45.43
2022-09-03T07:28:46.231Z,38.63
2022-09-03T07:29:46.221Z,37.79
2022-09-03T07:30:46.206Z,45.61
2022-09-03T07:31:46.254Z,52.19
2022-09-03T07:32:46.272Z,42.21
2022-09-03T07:33:46.181Z,34.36
2022-09-03T07:34:46.168Z,38.76
2022-09-03T07:35:46.176Z,40.68
2022-09-03T07:36:46.168Z,37.90
2022-09-03T07:37:46.157Z,39.01
2022-09-03T07:38:46.144Z,30.90
2022-09-03T07:39:46.221Z,28.56
2022-09-03T07:40:46.127Z,43.37
2022-09-03T07:41:46.282Z,45.22
2022-09-03T07:42:46.149Z,29.09
2022-09-03T07:43:46.114Z,29.02
2022-09-03T07:44:46.113Z,34.54
2022-09-03T07:45:46.088Z,31.86
2022-09-03T07:46:46.235Z,31.95
2022-09-03T07:47:46.081Z,29.00
2022-09-03T07:48:46.066Z,31.99
2022-09-03T07:49:46.063Z,32.47
2022-09-03T07:50:46.041Z,39.25
2022-09-03T07:51:46.036Z,44.11
2022-09-03T07:52:46.031Z,56.23
2022-09-03T07:53:46.021Z,38.16
2022-09-03T07:54:46.020Z,30.26
2022-09-03T07:55:46.010Z,29.18
2022-09-03T07:56:46.006Z,28.63
2022-09-03T07:57:45.988Z,28.07
2022-09-03T07:58:47.005Z,46.82
2022-09-03T07:59:45.969Z,49.87
2022-09-03T08:00:46.012Z,44.24
2022-09-03T08:01:45.959Z,49.34
2022-09-03T08:02:46.528Z,36.50
2022-09-03T08:03:47.014Z,49.93
2022-09-03T08:04:45.938Z,45.09
2022-09-03T08:05:45.939Z,50.42
2022-09-03T08:06:45.919Z,45.41
2022-09-03T08:07:45.919Z,33.79
2022-09-03T08:08:46.783Z,32.16
2022-09-03T08:09:45.891Z,32.46
2022-09-03T08:10:45.896Z,34.29
2022-09-03T08:11:45.886Z,35.91
2022-09-03T08:12:45.875Z,35.68
2022-09-03T08:13:45.860Z,28.38
2022-09-03T08:14:45.858Z,29.91
2022-09-03T08:15:45.927Z,29.18
2022-09-03T08:16:45.840Z,37.28
2022-09-03T08:17:46.714Z,39.79
2022-09-03T08:18:45.821Z,41.12
2022-09-03T08:19:45.915Z,40.86
2022-09-03T08:20:45.802Z,58.89
2022-09-03T08:21:45.798Z,55.43
2022-09-03T08:22:45.787Z,55.84
2022-09-03T08:23:45.784Z,55.93
2022-09-03T08:24:45.774Z,54.06
2022-09-03T08:25:45.896Z,57.61
2022-09-03T08:26:51.332Z,52.76
2022-09-03T08:27:47.750Z,55.36
2022-09-03T08:28:45.737Z,54.36
2022-09-03T08:29:45.727Z,52.52
2022-09-03T08:30:45.739Z,60.94
2022-09-03T08:31:45.797Z,50.34
2022-09-03T08:32:45.764Z,49.17
2022-09-03T08:33:45.695Z,54.74
2022-09-03T08:34:45.694Z,55.99
2022-09-03T08:35:45.730Z,48.51
2022-09-03T08:36:45.672Z,52.77
2022-09-03T08:37:46.218Z,44.41
2022-09-03T08:38:45.685Z,56.16
2022-09-03T08:39:45.712Z,47.48
2022-09-03T08:40:45.647Z,45.85
2022-09-03T08:41:45.632Z,51.26
2022-09-03T08:42:45.640Z,37.78
2022-09-03T08:43:45.643Z,35.27
2022-09-03T08:44:45.617Z,39.87
2022-09-03T08:45:45.635Z,49.45
2022-09-03T08:46:45.755Z,49.33
2022-09-03T08:47:45.605Z,33.80
2022-09-03T08:48:45.587Z,43.89
2022-09-03T08:49:45.582Z,45.72
2022-09-03T08:50:45.560Z,43.85
2022-09-03T08:51:45.554Z,57.57
2022-09-03T08:52:45.544Z,55.44
2022-09-03T08:53:45.538Z,40.79
2022-09-03T08:54:45.538Z,53.58
2022-09-03T08:55:45.561Z,54.29
2022-09-03T08:56:45.515Z,36.21
2022-09-03T08:57:45.515Z,38.33
2022-09-03T08:58:45.517Z,60.86
2022-09-03T08:59:45.489Z,53.08
2022-09-03T09:00:45.489Z,40.11
2022-09-03T09:01:45.571Z,54.50
2022-09-03T09:02:45.517Z,28.01
2022-09-03T09:03:45.470Z,27.73
2022-09-03T09:04:46.223Z,29.76
2022-09-03T09:05:45.508Z,53.20
2022-09-03T09:06:45.438Z,54.33
2022-09-03T09:07:45.437Z,54.54
2022-09-03T09:08:45.421Z,55.85
2022-09-03T09:09:45.417Z,56.98
2022-09-03T09:10:45.437Z,57.22
2022-09-03T09:11:45.410Z,54.86
2022-09-03T09:12:46.928Z,58.43
2022-09-03T09:13:46.378Z,57.21
2022-09-03T09:14:45.385Z,58.04
2022-09-03T09:15:45.495Z,56.37
2022-09-03T09:16:45.353Z,60.29
2022-09-03T09:17:45.348Z,57.00
2022-09-03T09:18:45.335Z,65.47
2022-09-03T09:19:45.348Z,65.31
2022-09-03T09:20:45.325Z,64.40
2022-09-03T09:21:45.332Z,65.63
2022-09-03T09:22:47.294Z,65.92
2022-09-03T09:23:45.322Z,62.82
2022-09-03T09:24:45.798Z,64.00
2022-09-03T09:25:46.289Z,61.76
2022-09-03T09:26:45.279Z,62.19
2022-09-03T09:27:45.267Z,64.00
2022-09-03T09:28:45.266Z,63.56
2022-09-03T09:29:45.253Z,65.49
2022-09-03T09:30:45.249Z,66.96
2022-09-03T09:31:45.252Z,63.97
2022-09-03T09:32:45.227Z,61.54
2022-09-03T09:33:45.237Z,66.13
2022-09-03T09:34:49.927Z,63.59
2022-09-03T09:35:47.205Z,64.58
2022-09-03T09:36:45.202Z,62.93
2022-09-03T09:37:45.192Z,62.60
2022-09-03T09:38:45.190Z,64.92
2022-09-03T09:39:45.791Z,63.98
2022-09-03T09:40:45.675Z,63.22
2022-09-03T09:41:45.164Z,62.87
2022-09-03T09:42:45.158Z,63.48
2022-09-03T09:43:45.149Z,63.48
2022-09-03T09:44:45.135Z,63.02
2022-09-03T09:45:45.132Z,62.77
2022-09-03T09:46:45.891Z,62.11
2022-09-03T09:47:45.114Z,62.61
2022-09-03T09:48:45.215Z,64.85
2022-09-03T09:49:45.109Z,63.65
2022-09-03T09:50:45.102Z,62.70
2022-09-03T09:51:45.079Z,63.70
2022-09-03T09:52:45.069Z,64.38
2022-09-03T09:53:45.090Z,63.23
2022-09-03T09:54:45.051Z,64.48
2022-09-03T09:55:45.096Z,63.43
2022-09-03T09:56:45.040Z,62.34
2022-09-03T09:57:45.819Z,64.24
2022-09-03T09:58:45.027Z,62.12
2022-09-03T09:59:45.117Z,64.60
2022-09-03T10:00:45.004Z,63.54
2022-09-03T10:01:45.071Z,62.56
2022-09-03T10:02:45.071Z,63.61
2022-09-03T10:03:44.991Z,63.84
2022-09-03T10:04:44.996Z,60.54
2022-09-03T10:05:45.869Z,62.44
2022-09-03T10:06:44.968Z,63.12
2022-09-03T10:07:44.956Z,61.80
2022-09-03T10:08:44.942Z,59.94
2022-09-03T10:09:44.932Z,60.61
2022-09-03T10:10:44.934Z,61.03
2022-09-03T10:11:45.346Z,63.73
2022-09-03T10:12:44.922Z,61.20
2022-09-03T10:13:44.906Z,62.26
2022-09-03T10:14:44.908Z,60.84
2022-09-03T10:15:44.908Z,61.42
2022-09-03T10:16:44.881Z,62.84
2022-09-03T10:17:45.756Z,61.29
2022-09-03T10:18:44.870Z,61.36
2022-09-03T10:19:44.859Z,62.99
2022-09-03T10:20:44.854Z,65.38
2022-09-03T10:21:44.848Z,65.64
2022-09-03T10:22:56.197Z,64.48
2022-09-03T10:23:45.851Z,60.90
2022-09-03T10:24:44.821Z,63.09
2022-09-03T10:25:44.812Z,63.10
2022-09-03T10:26:44.807Z,61.75
2022-09-03T10:27:44.791Z,64.55
2022-09-03T10:28:44.812Z,65.77
2022-09-03T10:29:44.780Z,67.35
2022-09-03T10:30:44.791Z,65.46
2022-09-03T10:31:44.769Z,63.59
2022-09-03T10:32:48.328Z,64.17
2022-09-03T10:33:45.745Z,63.07
2022-09-03T10:34:44.748Z,63.13
2022-09-03T10:35:44.741Z,61.14
2022-09-03T10:36:44.721Z,62.70
2022-09-03T10:37:44.714Z,64.71
2022-09-03T10:38:44.866Z,60.66
2022-09-03T10:39:46.735Z,63.25
2022-09-03T10:40:45.713Z,62.19
2022-09-03T10:41:44.711Z,62.66
2022-09-03T10:42:44.713Z,62.08
2022-09-03T10:43:44.729Z,62.52
2022-09-03T10:44:44.665Z,62.83
2022-09-03T10:45:44.695Z,63.03
2022-09-03T10:46:44.763Z,59.38
2022-09-03T10:47:44.645Z,62.00
2022-09-03T10:48:45.359Z,63.36
2022-09-03T10:49:44.646Z,64.05
2022-09-03T10:50:44.617Z,65.85
2022-09-03T10:51:49.365Z,62.81
2022-09-03T10:52:46.602Z,61.56
2022-09-03T10:53:44.663Z,60.05
2022-09-03T10:54:44.585Z,64.43
2022-09-03T10:55:44.604Z,63.10
2022-09-03T10:56:44.596Z,63.38
2022-09-03T10:57:44.563Z,63.83
2022-09-03T10:58:44.624Z,62.94
2022-09-03T10:59:44.588Z,62.77
2022-09-03T11:00:44.553Z,64.63
2022-09-03T11:01:44.565Z,65.05
2022-09-03T11:02:44.558Z,64.91
2022-09-03T11:03:44.545Z,64.21
2022-09-03T11:04:44.507Z,61.89
2022-09-03T11:05:44.499Z,63.94
2022-09-03T11:06:45.258Z,62.56
2022-09-03T11:07:44.486Z,65.70
2022-09-03T11:08:44.586Z,63.81
2022-09-03T11:09:44.485Z,62.98
2022-09-03T11:10:44.460Z,62.26
2022-09-03T11:11:44.454Z,62.22
2022-09-03T11:12:44.471Z,61.04
2022-09-03T11:13:44.517Z,63.89
2022-09-03T11:14:44.435Z,61.56
2022-09-03T11:15:44.484Z,62.39
2022-09-03T11:16:44.431Z,64.04
2022-09-03T11:17:44.446Z,66.08
2022-09-03T11:18:44.480Z,64.62
2022-09-03T11:19:44.397Z,61.59
2022-09-03T11:20:44.387Z,64.01
2022-09-03T11:21:44.409Z,66.28
2022-09-03T11:22:44.389Z,63.52
2022-09-03T11:23:44.455Z,62.80
2022-09-03T11:24:44.366Z,62.73
2022-09-03T11:25:44.345Z,62.85
2022-09-03T11:26:44.351Z,65.19
2022-09-03T11:27:44.332Z,64.47
2022-09-03T11:28:44.330Z,65.67
2022-09-03T11:29:44.333Z,65.39
2022-09-03T11:30:44.407Z,64.67
2022-09-03T11:31:44.301Z,62.89
2022-09-03T11:32:44.288Z,62.75
2022-09-03T11:33:44.297Z,59.53
2022-09-03T11:34:44.272Z,61.46
2022-09-03T11:35:44.272Z,63.47
2022-09-03T11:36:47.895Z,67.38
2022-09-03T11:37:45.256Z,61.69
2022-09-03T11:38:44.257Z,62.63
2022-09-03T11:39:44.263Z,61.99
2022-09-03T11:40:44.234Z,61.09
2022-09-03T11:41:44.228Z,61.83
2022-09-03T11:42:44.275Z,64.15
2022-09-03T11:43:44.237Z,65.39
2022-09-03T11:44:51.013Z,64.03
2022-09-03T11:45:45.229Z,60.89
2022-09-03T11:46:44.195Z,62.11
2022-09-03T11:47:44.175Z,63.01
2022-09-03T11:48:44.220Z,64.35
2022-09-03T11:49:44.166Z,65.09
2022-09-03T11:50:44.157Z,61.69
2022-09-03T11:51:44.166Z,62.74
2022-09-03T11:52:44.170Z,61.36
2022-09-03T11:53:44.122Z,61.75
2022-09-03T11:54:44.128Z,64.68
2022-09-03T11:55:44.156Z,65.45
2022-09-03T11:56:44.101Z,61.18
2022-09-03T11:57:44.116Z,62.74
2022-09-03T11:58:44.167Z,62.30
2022-09-03T11:59:44.082Z,63.91
2022-09-03T12:00:44.067Z,65.29
2022-09-03T12:01:44.819Z,62.26
2022-09-03T12:02:44.149Z,62.71
2022-09-03T12:03:44.098Z,63.26
2022-09-03T12:04:44.133Z,62.93
2022-09-03T12:05:44.026Z,64.64
2022-09-03T12:06:44.011Z,63.10
2022-09-03T12:07:44.020Z,62.52
2022-09-03T12:08:44.106Z,61.01
2022-09-03T12:09:44.027Z,61.62
2022-09-03T12:10:43.985Z,62.78
2022-09-03T12:11:43.967Z,61.49
2022-09-03T12:12:43.965Z,61.04
2022-09-03T12:13:43.986Z,61.81
2022-09-03T12:14:43.953Z,62.04
2022-09-03T12:15:43.971Z,61.24
2022-09-03T12:16:43.930Z,61.92
2022-09-03T12:17:43.938Z,61.82
2022-09-03T12:18:43.934Z,63.18
2022-09-03T12:19:43.956Z,63.28
2022-09-03T12:20:43.982Z,62.76
2022-09-03T12:21:43.892Z,65.47
2022-09-03T12:22:43.924Z,63.95
2022-09-03T12:23:43.869Z,62.71
2022-09-03T12:24:43.868Z,63.25
2022-09-03T12:25:43.859Z,62.42
2022-09-03T12:26:43.847Z,61.24
2022-09-03T12:27:43.843Z,65.32
2022-09-03T12:28:44.862Z,64.97
2022-09-03T12:29:43.832Z,65.51
2022-09-03T12:30:43.864Z,65.97
2022-09-03T12:31:43.809Z,63.61
2022-09-03T12:32:44.361Z,61.06
2022-09-03T12:33:43.800Z,61.92
2022-09-03T12:34:43.791Z,62.27
2022-09-03T12:35:59.812Z,63.27
2022-09-03T12:36:45.793Z,63.82
2022-09-03T12:39:10.496Z,65.08
2022-09-03T12:41:45.771Z,62.52
2022-09-03T12:42:43.723Z,60.90
2022-09-03T12:43:49.683Z,62.28
2022-09-03T12:44:45.706Z,62.19
2022-09-03T12:46:45.842Z,62.98
2022-09-03T12:47:43.763Z,61.13
2022-09-03T12:48:44.239Z,63.21
2022-09-03T12:49:44.674Z,62.00
2022-09-03T12:50:49.543Z,61.56
2022-09-03T12:51:51.990Z,64.24
2022-09-03T12:52:45.642Z,63.72
2022-09-03T12:53:43.632Z,62.45
2022-09-03T12:54:43.630Z,65.48
2022-09-03T12:55:44.630Z,63.17
2022-09-03T12:56:43.609Z,63.41
2022-09-03T12:57:43.597Z,64.11
2022-09-03T12:58:43.592Z,63.78